Angwin, California
Current Conditions -  °F | °C
As of 1:53 PM on Friday 28 Nov 2014 (Local Time) from KSTS Reporting Station
Overcast Overcast  
Wind Chill: 59°   Ceiling: 2600
Heat Index: 59°   Visibility: 7mi
Dew Point: 50°   Wind: 0mph
Humidity: 72%   Direction: NA
Pressure: 29.92"   Gusts: NA
Location:  38.58°N, 122.45°W
Report Text: KSTS 282153Z 00000KT 7SM OVC026 15/10 A2992 RMK AO2 SLP125 T01500100
Loading
Personal Weather Stations






























Interactive Weather Map New forecast layout! Learn more

10-Day Weather Forecast

Advertisements
Track Severe Weather on mobile